sensor_id;sensor_type;location;lat;lon;timestamp;pressure;altitude;pressure_sealevel;temperature
24740;BMP280;45234;48.148;17.128;2024-01-27T00:02:15;100660.19;;;7.42
24740;BMP280;45234;48.148;17.128;2024-01-27T00:04:42;100692.09;;;7.41
24740;BMP280;45234;48.148;17.128;2024-01-27T00:07:09;100682.41;;;7.35
24740;BMP280;45234;48.148;17.128;2024-01-27T00:09:36;100685.84;;;7.44
24740;BMP280;45234;48.148;17.128;2024-01-27T00:12:03;100681.06;;;7.31
24740;BMP280;45234;48.148;17.128;2024-01-27T00:14:31;100687.84;;;7.32
24740;BMP280;45234;48.148;17.128;2024-01-27T00:16:57;100691.69;;;7.28
24740;BMP280;45234;48.148;17.128;2024-01-27T00:19:25;100686.53;;;7.28
24740;BMP280;45234;48.148;17.128;2024-01-27T00:21:52;100720.06;;;7.28
24740;BMP280;45234;48.148;17.128;2024-01-27T00:24:19;100718.59;;;7.25
24740;BMP280;45234;48.148;17.128;2024-01-27T00:26:46;100726.47;;;7.24
24740;BMP280;45234;48.148;17.128;2024-01-27T00:29:13;100738.41;;;7.25
24740;BMP280;45234;48.148;17.128;2024-01-27T00:31:41;100745.50;;;7.23
24740;BMP280;45234;48.148;17.128;2024-01-27T00:34:08;100746.09;;;7.17
24740;BMP280;45234;48.148;17.128;2024-01-27T00:36:35;100758.03;;;7.18
24740;BMP280;45234;48.148;17.128;2024-01-27T00:39:04;100757.44;;;7.24
24740;BMP280;45234;48.148;17.128;2024-01-27T00:41:31;100768.03;;;7.21
24740;BMP280;45234;48.148;17.128;2024-01-27T00:43:58;100758.97;;;7.17
24740;BMP280;45234;48.148;17.128;2024-01-27T00:46:25;100769.59;;;7.14
24740;BMP280;45234;48.148;17.128;2024-01-27T00:48:52;100761.56;;;7.17
24740;BMP280;45234;48.148;17.128;2024-01-27T00:51:19;100745.34;;;7.24
24740;BMP280;45234;48.148;17.128;2024-01-27T00:53:46;100748.53;;;7.18
24740;BMP280;45234;48.148;17.128;2024-01-27T00:56:13;100769.63;;;7.22
24740;BMP280;45234;48.148;17.128;2024-01-27T00:58:40;100759.56;;;7.28
24740;BMP280;45234;48.148;17.128;2024-01-27T01:01:08;100766.03;;;7.32
24740;BMP280;45234;48.148;17.128;2024-01-27T01:03:35;100771.69;;;7.36
24740;BMP280;45234;48.148;17.128;2024-01-27T01:06:02;100771.09;;;7.42
24740;BMP280;45234;48.148;17.128;2024-01-27T01:08:31;100778.47;;;7.37
24740;BMP280;45234;48.148;17.128;2024-01-27T01:10:58;100779.13;;;7.39
24740;BMP280;45234;48.148;17.128;2024-01-27T01:13:25;100779.06;;;7.31
24740;BMP280;45234;48.148;17.128;2024-01-27T01:15:52;100770.69;;;7.29
24740;BMP280;45234;48.148;17.128;2024-01-27T01:18:19;100770.69;;;7.29
24740;BMP280;45234;48.148;17.128;2024-01-27T01:20:46;100787.41;;;7.25
24740;BMP280;45234;48.148;17.128;2024-01-27T01:23:13;100756.47;;;7.25
24740;BMP280;45234;48.148;17.128;2024-01-27T01:25:40;100791.06;;;7.22
24740;BMP280;45234;48.148;17.128;2024-01-27T01:28:07;100774.50;;;7.25
24740;BMP280;45234;48.148;17.128;2024-01-27T01:30:34;100770.63;;;7.21
24740;BMP280;45234;48.148;17.128;2024-01-27T01:33:01;100786.75;;;7.23
24740;BMP280;45234;48.148;17.128;2024-01-27T01:35:28;100808.19;;;7.23
24740;BMP280;45234;48.148;17.128;2024-01-27T01:37:55;100794.34;;;7.24
24740;BMP280;45234;48.148;17.128;2024-01-27T01:40:22;100798.88;;;7.30
24740;BMP280;45234;48.148;17.128;2024-01-27T01:42:52;100782.59;;;7.30
24740;BMP280;45234;48.148;17.128;2024-01-27T01:45:19;100816.56;;;7.25
24740;BMP280;45234;48.148;17.128;2024-01-27T01:47:47;100807.06;;;7.26
24740;BMP280;45234;48.148;17.128;2024-01-27T01:50:14;100795.13;;;7.25
24740;BMP280;45234;48.148;17.128;2024-01-27T01:52:42;100800.91;;;7.19
24740;BMP280;45234;48.148;17.128;2024-01-27T01:55:09;100811.50;;;7.16
24740;BMP280;45234;48.148;17.128;2024-01-27T01:57:38;100808.78;;;7.17
24740;BMP280;45234;48.148;17.128;2024-01-27T02:00:06;100808.63;;;7.19
24740;BMP280;45234;48.148;17.128;2024-01-27T02:02:38;100789.97;;;7.25
24740;BMP280;45234;48.148;17.128;2024-01-27T02:05:05;100822.84;;;7.23
24740;BMP280;45234;48.148;17.128;2024-01-27T02:07:32;100828.38;;;7.28
24740;BMP280;45234;48.148;17.128;2024-01-27T02:09:59;100812.44;;;7.32
24740;BMP280;45234;48.148;17.128;2024-01-27T02:12:26;100838.81;;;7.26
24740;BMP280;45234;48.148;17.128;2024-01-27T02:14:53;100807.59;;;7.29
24740;BMP280;45234;48.148;17.128;2024-01-27T02:17:20;100838.31;;;7.23
24740;BMP280;45234;48.148;17.128;2024-01-27T02:19:47;100834.56;;;7.17
24740;BMP280;45234;48.148;17.128;2024-01-27T02:22:13;100845.97;;;7.15
24740;BMP280;45234;48.148;17.128;2024-01-27T02:24:40;100815.25;;;7.21
24740;BMP280;45234;48.148;17.128;2024-01-27T02:27:07;100849.50;;;7.14
24740;BMP280;45234;48.148;17.128;2024-01-27T02:29:34;100869.25;;;7.23
24740;BMP280;45234;48.148;17.128;2024-01-27T02:32:01;100859.28;;;7.10
24740;BMP280;45234;48.148;17.128;2024-01-27T02:34:28;100874.75;;;7.10
24740;BMP280;45234;48.148;17.128;2024-01-27T02:36:55;100873.38;;;7.16
24740;BMP280;45234;48.148;17.128;2024-01-27T02:39:22;100881.84;;;7.08
24740;BMP280;45234;48.148;17.128;2024-01-27T02:41:49;100877.78;;;7.06
24740;BMP280;45234;48.148;17.128;2024-01-27T02:44:16;100882.94;;;7.06
24740;BMP280;45234;48.148;17.128;2024-01-27T02:46:43;100870.94;;;6.96
24740;BMP280;45234;48.148;17.128;2024-01-27T02:49:11;100885.13;;;7.00
24740;BMP280;45234;48.148;17.128;2024-01-27T02:51:38;100882.50;;;6.92
24740;BMP280;45234;48.148;17.128;2024-01-27T02:54:05;100869.94;;;6.97
24740;BMP280;45234;48.148;17.128;2024-01-27T02:56:32;100895.03;;;7.05
24740;BMP280;45234;48.148;17.128;2024-01-27T02:58:59;100902.25;;;7.02
24740;BMP280;45234;48.148;17.128;2024-01-27T03:01:26;100907.97;;;6.95
24740;BMP280;45234;48.148;17.128;2024-01-27T03:03:52;100904.13;;;6.99
24740;BMP280;45234;48.148;17.128;2024-01-27T03:06:20;100905.75;;;7.00
24740;BMP280;45234;48.148;17.128;2024-01-27T03:08:46;100912.59;;;6.92
24740;BMP280;45234;48.148;17.128;2024-01-27T03:11:13;100905.41;;;6.95
24740;BMP280;45234;48.148;17.128;2024-01-27T03:13:40;100923.44;;;6.95
24740;BMP280;45234;48.148;17.128;2024-01-27T03:16:12;100925.88;;;6.87
24740;BMP280;45234;48.148;17.128;2024-01-27T03:18:39;100922.28;;;6.80
24740;BMP280;45234;48.148;17.128;2024-01-27T03:21:09;100933.13;;;6.84
24740;BMP280;45234;48.148;17.128;2024-01-27T03:23:36;100930.84;;;6.81
24740;BMP280;45234;48.148;17.128;2024-01-27T03:26:03;100932.31;;;6.83
24740;BMP280;45234;48.148;17.128;2024-01-27T03:28:33;100914.81;;;6.77
24740;BMP280;45234;48.148;17.128;2024-01-27T03:31:00;100911.03;;;6.81
24740;BMP280;45234;48.148;17.128;2024-01-27T03:33:27;100910.28;;;6.71
24740;BMP280;45234;48.148;17.128;2024-01-27T03:35:56;100923.31;;;6.60
24740;BMP280;45234;48.148;17.128;2024-01-27T03:38:23;100920.59;;;6.61
24740;BMP280;45234;48.148;17.128;2024-01-27T03:40:50;100937.81;;;6.61
24740;BMP280;45234;48.148;17.128;2024-01-27T03:43:17;100930.72;;;6.73
24740;BMP280;45234;48.148;17.128;2024-01-27T03:45:44;100920.16;;;6.66
24740;BMP280;45234;48.148;17.128;2024-01-27T03:48:11;100928.19;;;6.63
24740;BMP280;45234;48.148;17.128;2024-01-27T03:50:39;100952.31;;;6.62
24740;BMP280;45234;48.148;17.128;2024-01-27T03:53:06;100928.84;;;6.65
24740;BMP280;45234;48.148;17.128;2024-01-27T03:55:32;100932.94;;;6.58
24740;BMP280;45234;48.148;17.128;2024-01-27T03:58:01;100912.34;;;6.58
24740;BMP280;45234;48.148;17.128;2024-01-27T04:00:28;100949.06;;;6.60
24740;BMP280;45234;48.148;17.128;2024-01-27T04:02:59;100929.31;;;6.51
24740;BMP280;45234;48.148;17.128;2024-01-27T04:05:27;100929.84;;;6.54
24740;BMP280;45234;48.148;17.128;2024-01-27T04:07:55;100935.53;;;6.58
24740;BMP280;45234;48.148;17.128;2024-01-27T04:10:22;100925.22;;;6.58
24740;BMP280;45234;48.148;17.128;2024-01-27T04:12:50;100925.63;;;6.53
24740;BMP280;45234;48.148;17.128;2024-01-27T04:15:17;100925.09;;;6.50
24740;BMP280;45234;48.148;17.128;2024-01-27T04:17:44;100926.44;;;6.54
24740;BMP280;45234;48.148;17.128;2024-01-27T04:20:11;100945.59;;;6.42
24740;BMP280;45234;48.148;17.128;2024-01-27T04:22:39;100949.13;;;6.41
24740;BMP280;45234;48.148;17.128;2024-01-27T04:25:06;100932.03;;;6.49
24740;BMP280;45234;48.148;17.128;2024-01-27T04:27:37;100945.06;;;6.38
24740;BMP280;45234;48.148;17.128;2024-01-27T04:30:07;100947.50;;;6.40
24740;BMP280;45234;48.148;17.128;2024-01-27T04:32:36;100949.81;;;6.33
24740;BMP280;45234;48.148;17.128;2024-01-27T04:35:03;100952.81;;;6.28
24740;BMP280;45234;48.148;17.128;2024-01-27T04:37:30;100950.91;;;6.30
24740;BMP280;45234;48.148;17.128;2024-01-27T04:39:58;100952.13;;;6.26
24740;BMP280;45234;48.148;17.128;2024-01-27T04:42:24;100962.97;;;6.20
24740;BMP280;45234;48.148;17.128;2024-01-27T04:44:51;100968.94;;;6.30
24740;BMP280;45234;48.148;17.128;2024-01-27T04:47:18;100971.66;;;6.19
24740;BMP280;45234;48.148;17.128;2024-01-27T04:49:45;100969.75;;;6.12
24740;BMP280;45234;48.148;17.128;2024-01-27T04:52:12;100973.94;;;6.22
24740;BMP280;45234;48.148;17.128;2024-01-27T04:54:39;100949.84;;;6.14
24740;BMP280;45234;48.148;17.128;2024-01-27T04:57:06;100968.53;;;6.06
24740;BMP280;45234;48.148;17.128;2024-01-27T04:59:33;100976.53;;;6.03
24740;BMP280;45234;48.148;17.128;2024-01-27T05:02:00;100972.22;;;6.03
24740;BMP280;45234;48.148;17.128;2024-01-27T05:04:27;100975.44;;;6.05
24740;BMP280;45234;48.148;17.128;2024-01-27T05:06:54;100971.94;;;6.07
24740;BMP280;45234;48.148;17.128;2024-01-27T05:09:21;100974.38;;;6.08
24740;BMP280;45234;48.148;17.128;2024-01-27T05:11:49;100965.31;;;6.04
24740;BMP280;45234;48.148;17.128;2024-01-27T05:14:18;100967.31;;;6.10
24740;BMP280;45234;48.148;17.128;2024-01-27T05:16:45;100981.41;;;6.06
24740;BMP280;45234;48.148;17.128;2024-01-27T05:19:12;100974.22;;;6.10
24740;BMP280;45234;48.148;17.128;2024-01-27T05:21:39;100959.75;;;6.09
24740;BMP280;45234;48.148;17.128;2024-01-27T05:24:06;100977.63;;;6.10
24740;BMP280;45234;48.148;17.128;2024-01-27T05:26:33;100959.72;;;6.18
24740;BMP280;45234;48.148;17.128;2024-01-27T05:29:00;100935.88;;;6.16
24740;BMP280;45234;48.148;17.128;2024-01-27T05:31:27;100959.19;;;6.15
24740;BMP280;45234;48.148;17.128;2024-01-27T05:33:53;100968.13;;;6.20
24740;BMP280;45234;48.148;17.128;2024-01-27T05:36:22;100975.03;;;6.20
24740;BMP280;45234;48.148;17.128;2024-01-27T05:38:48;100973.81;;;6.24
24740;BMP280;45234;48.148;17.128;2024-01-27T05:41:15;100979.38;;;6.19
24740;BMP280;45234;48.148;17.128;2024-01-27T05:43:42;100984.50;;;6.19
24740;BMP280;45234;48.148;17.128;2024-01-27T05:46:10;100983.59;;;6.11
24740;BMP280;45234;48.148;17.128;2024-01-27T05:48:37;100986.94;;;6.21
24740;BMP280;45234;48.148;17.128;2024-01-27T05:51:04;100986.28;;;6.09
24740;BMP280;45234;48.148;17.128;2024-01-27T05:53:31;100982.34;;;6.05
24740;BMP280;45234;48.148;17.128;2024-01-27T05:56:01;100994.84;;;6.00
24740;BMP280;45234;48.148;17.128;2024-01-27T05:58:28;100996.72;;;5.98
24740;BMP280;45234;48.148;17.128;2024-01-27T06:00:55;101003.34;;;5.91
24740;BMP280;45234;48.148;17.128;2024-01-27T06:03:22;101006.06;;;5.89
24740;BMP280;45234;48.148;17.128;2024-01-27T06:05:49;101018.78;;;5.91
24740;BMP280;45234;48.148;17.128;2024-01-27T06:08:16;101029.91;;;6.01
24740;BMP280;45234;48.148;17.128;2024-01-27T06:10:45;101041.81;;;5.92
24740;BMP280;45234;48.148;17.128;2024-01-27T06:13:12;101025.28;;;5.95
24740;BMP280;45234;48.148;17.128;2024-01-27T06:15:39;101029.06;;;5.91
24740;BMP280;45234;48.148;17.128;2024-01-27T06:18:06;101046.13;;;5.82
24740;BMP280;45234;48.148;17.128;2024-01-27T06:20:33;101057.09;;;5.84
24740;BMP280;45234;48.148;17.128;2024-01-27T06:23:00;101057.22;;;5.83
24740;BMP280;45234;48.148;17.128;2024-01-27T06:25:27;101059.13;;;5.90
24740;BMP280;45234;48.148;17.128;2024-01-27T06:27:54;101059.13;;;5.81
24740;BMP280;45234;48.148;17.128;2024-01-27T06:30:21;101077.41;;;5.78
24740;BMP280;45234;48.148;17.128;2024-01-27T06:32:48;101057.50;;;5.80
24740;BMP280;45234;48.148;17.128;2024-01-27T06:35:15;101065.38;;;5.88
24740;BMP280;45234;48.148;17.128;2024-01-27T06:37:42;101076.44;;;5.79
24740;BMP280;45234;48.148;17.128;2024-01-27T06:40:09;101083.75;;;5.73
24740;BMP280;45234;48.148;17.128;2024-01-27T06:42:36;101079.16;;;5.77
24740;BMP280;45234;48.148;17.128;2024-01-27T06:45:04;101073.19;;;5.77
24740;BMP280;45234;48.148;17.128;2024-01-27T06:47:31;101078.34;;;5.77
24740;BMP280;45234;48.148;17.128;2024-01-27T06:49:58;101065.91;;;5.82
24740;BMP280;45234;48.148;17.128;2024-01-27T06:52:25;101087.28;;;5.82
24740;BMP280;45234;48.148;17.128;2024-01-27T06:54:52;101080.00;;;5.87
24740;BMP280;45234;48.148;17.128;2024-01-27T06:57:23;101079.44;;;5.84
24740;BMP280;45234;48.148;17.128;2024-01-27T06:59:51;101102.75;;;5.92
24740;BMP280;45234;48.148;17.128;2024-01-27T07:02:23;101111.59;;;5.99
24740;BMP280;45234;48.148;17.128;2024-01-27T07:04:51;101103.19;;;6.16
24740;BMP280;45234;48.148;17.128;2024-01-27T07:07:19;101129.66;;;6.38
24740;BMP280;45234;48.148;17.128;2024-01-27T07:09:47;101135.63;;;6.67
24740;BMP280;45234;48.148;17.128;2024-01-27T07:12:14;101122.19;;;6.73
24740;BMP280;45234;48.148;17.128;2024-01-27T07:14:41;101134.78;;;6.76
24740;BMP280;45234;48.148;17.128;2024-01-27T07:17:08;101141.34;;;6.80
24740;BMP280;45234;48.148;17.128;2024-01-27T07:19:35;101136.13;;;6.90
24740;BMP280;45234;48.148;17.128;2024-01-27T07:22:02;101126.91;;;7.07
24740;BMP280;45234;48.148;17.128;2024-01-27T07:24:30;101124.97;;;7.18
24740;BMP280;45234;48.148;17.128;2024-01-27T07:26:59;101116.59;;;7.07
24740;BMP280;45234;48.148;17.128;2024-01-27T07:29:27;101128.13;;;7.03
24740;BMP280;45234;48.148;17.128;2024-01-27T07:31:54;101125.28;;;7.06
24740;BMP280;45234;48.148;17.128;2024-01-27T07:34:22;101130.94;;;7.19
24740;BMP280;45234;48.148;17.128;2024-01-27T07:36:49;101111.09;;;7.29
24740;BMP280;45234;48.148;17.128;2024-01-27T07:39:16;101091.50;;;7.36
24740;BMP280;45234;48.148;17.128;2024-01-27T07:41:43;101094.75;;;7.38
24740;BMP280;45234;48.148;17.128;2024-01-27T07:44:11;101107.28;;;7.33
24740;BMP280;45234;48.148;17.128;2024-01-27T07:46:41;101090.97;;;7.32
24740;BMP280;45234;48.148;17.128;2024-01-27T07:49:09;101099.19;;;7.46
24740;BMP280;45234;48.148;17.128;2024-01-27T07:51:36;101103.44;;;7.37
24740;BMP280;45234;48.148;17.128;2024-01-27T07:54:03;101105.34;;;7.35
24740;BMP280;45234;48.148;17.128;2024-01-27T07:56:30;101097.22;;;7.57
24740;BMP280;45234;48.148;17.128;2024-01-27T07:58:57;101103.97;;;7.41
24740;BMP280;45234;48.148;17.128;2024-01-27T08:01:24;101115.66;;;7.35
24740;BMP280;45234;48.148;17.128;2024-01-27T08:03:51;101103.25;;;7.21
24740;BMP280;45234;48.148;17.128;2024-01-27T08:06:31;101114.16;;;7.05
24740;BMP280;45234;48.148;17.128;2024-01-27T08:08:58;101112.56;;;6.94
24740;BMP280;45234;48.148;17.128;2024-01-27T08:11:26;101109.63;;;7.17
24740;BMP280;45234;48.148;17.128;2024-01-27T08:13:53;101114.50;;;7.10
24740;BMP280;45234;48.148;17.128;2024-01-27T08:16:20;101094.09;;;7.36
24740;BMP280;45234;48.148;17.128;2024-01-27T08:18:48;101105.97;;;7.47
24740;BMP280;45234;48.148;17.128;2024-01-27T08:21:16;101115.78;;;7.71
24740;BMP280;45234;48.148;17.128;2024-01-27T08:23:43;101134.41;;;7.64
24740;BMP280;45234;48.148;17.128;2024-01-27T08:26:11;101125.41;;;7.78
24740;BMP280;45234;48.148;17.128;2024-01-27T08:28:38;101139.13;;;7.79
24740;BMP280;45234;48.148;17.128;2024-01-27T08:31:05;101105.16;;;8.01
24740;BMP280;45234;48.148;17.128;2024-01-27T08:33:32;101139.34;;;8.03
24740;BMP280;45234;48.148;17.128;2024-01-27T08:35:59;101151.09;;;7.97
24740;BMP280;45234;48.148;17.128;2024-01-27T08:38:26;101149.38;;;8.06
24740;BMP280;45234;48.148;17.128;2024-01-27T08:40:53;101161.56;;;8.14
24740;BMP280;45234;48.148;17.128;2024-01-27T08:43:20;101151.47;;;8.38
24740;BMP280;45234;48.148;17.128;2024-01-27T08:45:46;101157.59;;;8.37
24740;BMP280;45234;48.148;17.128;2024-01-27T08:48:13;101171.41;;;8.28
24740;BMP280;45234;48.148;17.128;2024-01-27T08:50:41;101176.78;;;8.35
24740;BMP280;45234;48.148;17.128;2024-01-27T08:53:08;101193.84;;;8.27
24740;BMP280;45234;48.148;17.128;2024-01-27T08:55:35;101163.41;;;8.04
24740;BMP280;45234;48.148;17.128;2024-01-27T08:58:02;101200.97;;;7.98
24740;BMP280;45234;48.148;17.128;2024-01-27T09:00:29;101189.06;;;8.05
24740;BMP280;45234;48.148;17.128;2024-01-27T09:02:56;101197.56;;;7.97
24740;BMP280;45234;48.148;17.128;2024-01-27T09:05:23;101211.94;;;7.73
24740;BMP280;45234;48.148;17.128;2024-01-27T09:07:50;101181.41;;;7.68
24740;BMP280;45234;48.148;17.128;2024-01-27T09:10:17;101214.16;;;7.58
24740;BMP280;45234;48.148;17.128;2024-01-27T09:12:44;101213.38;;;7.48
24740;BMP280;45234;48.148;17.128;2024-01-27T09:15:11;101227.22;;;7.47
24740;BMP280;45234;48.148;17.128;2024-01-27T09:17:38;101229.28;;;7.43
24740;BMP280;45234;48.148;17.128;2024-01-27T09:20:06;101244.91;;;7.32
24740;BMP280;45234;48.148;17.128;2024-01-27T09:22:34;101227.13;;;7.29
24740;BMP280;45234;48.148;17.128;2024-01-27T09:25:01;101266.78;;;7.28
24740;BMP280;45234;48.148;17.128;2024-01-27T09:27:29;101232.44;;;7.18
24740;BMP280;45234;48.148;17.128;2024-01-27T09:29:56;101220.66;;;7.06
24740;BMP280;45234;48.148;17.128;2024-01-27T09:32:23;101207.78;;;7.06
24740;BMP280;45234;48.148;17.128;2024-01-27T09:34:50;101211.16;;;6.96
24740;BMP280;45234;48.148;17.128;2024-01-27T09:37:20;101214.69;;;7.05
24740;BMP280;45234;48.148;17.128;2024-01-27T09:39:47;101198.69;;;7.02
24740;BMP280;45234;48.148;17.128;2024-01-27T09:42:14;101211.97;;;7.07
24740;BMP280;45234;48.148;17.128;2024-01-27T09:44:44;101188.91;;;6.95
24740;BMP280;45234;48.148;17.128;2024-01-27T09:47:15;101193.41;;;6.93
24740;BMP280;45234;48.148;17.128;2024-01-27T09:49:43;101176.16;;;7.04
24740;BMP280;45234;48.148;17.128;2024-01-27T09:52:10;101204.50;;;7.04
24740;BMP280;45234;48.148;17.128;2024-01-27T09:54:37;101175.88;;;7.07
24740;BMP280;45234;48.148;17.128;2024-01-27T09:57:09;101155.25;;;7.07
24740;BMP280;45234;48.148;17.128;2024-01-27T09:59:41;101121.47;;;7.10
24740;BMP280;45234;48.148;17.128;2024-01-27T10:02:12;101154.81;;;7.21
24740;BMP280;45234;48.148;17.128;2024-01-27T10:04:41;101155.03;;;7.37
24740;BMP280;45234;48.148;17.128;2024-01-27T10:07:09;101135.09;;;7.29
24740;BMP280;45234;48.148;17.128;2024-01-27T10:09:36;101108.88;;;7.34
24740;BMP280;45234;48.148;17.128;2024-01-27T10:12:03;101112.75;;;7.48
24740;BMP280;45234;48.148;17.128;2024-01-27T10:14:41;101087.88;;;7.29
24740;BMP280;45234;48.148;17.128;2024-01-27T10:17:12;101089.06;;;7.44
24740;BMP280;45234;48.148;17.128;2024-01-27T10:19:39;101075.97;;;7.46
24740;BMP280;45234;48.148;17.128;2024-01-27T10:22:11;101088.78;;;7.38
24740;BMP280;45234;48.148;17.128;2024-01-27T10:24:38;101085.78;;;7.42
24740;BMP280;45234;48.148;17.128;2024-01-27T10:27:05;101016.00;;;7.44
24740;BMP280;45234;48.148;17.128;2024-01-27T10:29:32;101070.28;;;7.42
24740;BMP280;45234;48.148;17.128;2024-01-27T10:32:09;101071.34;;;7.49
24740;BMP280;45234;48.148;17.128;2024-01-27T10:34:37;101069.88;;;7.47
24740;BMP280;45234;48.148;17.128;2024-01-27T10:37:04;101077.84;;;7.53
24740;BMP280;45234;48.148;17.128;2024-01-27T10:39:31;101082.25;;;7.43
24740;BMP280;45234;48.148;17.128;2024-01-27T10:42:01;101071.16;;;7.60
24740;BMP280;45234;48.148;17.128;2024-01-27T10:44:29;101118.59;;;7.50
24740;BMP280;45234;48.148;17.128;2024-01-27T10:46:57;101096.59;;;7.55
24740;BMP280;45234;48.148;17.128;2024-01-27T10:49:28;101098.38;;;7.55
24740;BMP280;45234;48.148;17.128;2024-01-27T10:52:00;101128.78;;;7.51
24740;BMP280;45234;48.148;17.128;2024-01-27T10:54:28;101125.94;;;7.54
24740;BMP280;45234;48.148;17.128;2024-01-27T10:56:58;101123.16;;;7.66
24740;BMP280;45234;48.148;17.128;2024-01-27T10:59:30;101147.16;;;7.76
24740;BMP280;45234;48.148;17.128;2024-01-27T11:01:57;101143.81;;;7.66
24740;BMP280;45234;48.148;17.128;2024-01-27T11:04:25;101146.38;;;7.66
24740;BMP280;45234;48.148;17.128;2024-01-27T11:06:54;101164.44;;;7.66
24740;BMP280;45234;48.148;17.128;2024-01-27T11:09:22;101171.50;;;7.63
24740;BMP280;45234;48.148;17.128;2024-01-27T11:11:50;101183.28;;;7.76
24740;BMP280;45234;48.148;17.128;2024-01-27T11:14:17;101192.91;;;7.74
24740;BMP280;45234;48.148;17.128;2024-01-27T11:16:44;101170.38;;;7.76
24740;BMP280;45234;48.148;17.128;2024-01-27T11:19:16;101195.50;;;7.74
24740;BMP280;45234;48.148;17.128;2024-01-27T11:21:43;101199.97;;;7.72
24740;BMP280;45234;48.148;17.128;2024-01-27T11:24:24;101199.47;;;7.68
24740;BMP280;45234;48.148;17.128;2024-01-27T11:27:03;101181.81;;;7.63
24740;BMP280;45234;48.148;17.128;2024-01-27T11:29:31;101185.59;;;7.79
24740;BMP280;45234;48.148;17.128;2024-01-27T11:32:02;101201.88;;;7.79
24740;BMP280;45234;48.148;17.128;2024-01-27T11:34:44;101200.50;;;7.75
24740;BMP280;45234;48.148;17.128;2024-01-27T11:37:16;101162.50;;;7.77
24740;BMP280;45234;48.148;17.128;2024-01-27T11:39:43;101208.41;;;7.74
24740;BMP280;45234;48.148;17.128;2024-01-27T11:42:12;101202.28;;;7.75
24740;BMP280;45234;48.148;17.128;2024-01-27T11:44:41;101217.88;;;7.83
24740;BMP280;45234;48.148;17.128;2024-01-27T11:47:18;101168.00;;;7.82
24740;BMP280;45234;48.148;17.128;2024-01-27T11:49:53;101216.69;;;7.77
24740;BMP280;45234;48.148;17.128;2024-01-27T11:52:21;101216.94;;;7.74
24740;BMP280;45234;48.148;17.128;2024-01-27T11:54:58;101219.84;;;7.61
24740;BMP280;45234;48.148;17.128;2024-01-27T11:57:26;101216.41;;;7.71
24740;BMP280;45234;48.148;17.128;2024-01-27T11:59:55;101237.75;;;7.73
24740;BMP280;45234;48.148;17.128;2024-01-27T12:02:22;101227.16;;;7.76
24740;BMP280;45234;48.148;17.128;2024-01-27T12:04:49;101241.06;;;7.65
24740;BMP280;45234;48.148;17.128;2024-01-27T12:07:17;101230.59;;;7.67
24740;BMP280;45234;48.148;17.128;2024-01-27T12:09:49;101236.19;;;7.52
24740;BMP280;45234;48.148;17.128;2024-01-27T12:12:17;101235.47;;;7.60
24740;BMP280;45234;48.148;17.128;2024-01-27T12:14:49;101250.50;;;7.74
24740;BMP280;45234;48.148;17.128;2024-01-27T12:17:18;101256.47;;;7.75
24740;BMP280;45234;48.148;17.128;2024-01-27T12:19:52;101259.38;;;7.62
24740;BMP280;45234;48.148;17.128;2024-01-27T12:22:26;101266.59;;;7.68
24740;BMP280;45234;48.148;17.128;2024-01-27T12:24:55;101294.81;;;7.70
24740;BMP280;45234;48.148;17.128;2024-01-27T12:27:23;101289.94;;;7.67
24740;BMP280;45234;48.148;17.128;2024-01-27T12:29:50;101299.97;;;7.70
24740;BMP280;45234;48.148;17.128;2024-01-27T12:32:18;101305.16;;;7.60
24740;BMP280;45234;48.148;17.128;2024-01-27T12:34:45;101291.16;;;7.62
24740;BMP280;45234;48.148;17.128;2024-01-27T12:37:13;101302.53;;;7.70
24740;BMP280;45234;48.148;17.128;2024-01-27T12:39:44;101305.91;;;7.80
24740;BMP280;45234;48.148;17.128;2024-01-27T12:42:11;101324.47;;;7.93
24740;BMP280;45234;48.148;17.128;2024-01-27T12:44:39;101329.13;;;7.99
24740;BMP280;45234;48.148;17.128;2024-01-27T12:47:07;101335.75;;;8.02
24740;BMP280;45234;48.148;17.128;2024-01-27T12:49:35;101341.19;;;8.08
24740;BMP280;45234;48.148;17.128;2024-01-27T12:52:03;101335.41;;;8.14
24740;BMP280;45234;48.148;17.128;2024-01-27T12:54:30;101323.53;;;7.94
24740;BMP280;45234;48.148;17.128;2024-01-27T12:56:58;101327.59;;;7.96
24740;BMP280;45234;48.148;17.128;2024-01-27T12:59:25;101327.22;;;8.01
24740;BMP280;45234;48.148;17.128;2024-01-27T13:01:51;101316.22;;;7.99
24740;BMP280;45234;48.148;17.128;2024-01-27T13:04:19;101315.44;;;7.89
24740;BMP280;45234;48.148;17.128;2024-01-27T13:06:46;101309.16;;;7.82
24740;BMP280;45234;48.148;17.128;2024-01-27T13:09:13;101284.31;;;7.81
24740;BMP280;45234;48.148;17.128;2024-01-27T13:11:40;101311.75;;;7.82
24740;BMP280;45234;48.148;17.128;2024-01-27T13:14:08;101332.72;;;7.79
24740;BMP280;45234;48.148;17.128;2024-01-27T13:16:36;101321.41;;;7.80
24740;BMP280;45234;48.148;17.128;2024-01-27T13:19:03;101316.06;;;7.91
24740;BMP280;45234;48.148;17.128;2024-01-27T13:21:30;101340.56;;;7.87
24740;BMP280;45234;48.148;17.128;2024-01-27T13:23:57;101347.88;;;8.01
24740;BMP280;45234;48.148;17.128;2024-01-27T13:26:24;101358.16;;;8.11
24740;BMP280;45234;48.148;17.128;2024-01-27T13:28:53;101366.59;;;8.03
24740;BMP280;45234;48.148;17.128;2024-01-27T13:31:20;101365.13;;;8.01
24740;BMP280;45234;48.148;17.128;2024-01-27T13:33:47;101382.53;;;7.99
24740;BMP280;45234;48.148;17.128;2024-01-27T13:36:15;101378.69;;;7.93
24740;BMP280;45234;48.148;17.128;2024-01-27T13:38:43;101374.31;;;8.03
24740;BMP280;45234;48.148;17.128;2024-01-27T13:41:10;101372.88;;;8.01
24740;BMP280;45234;48.148;17.128;2024-01-27T13:43:37;101386.47;;;7.83
24740;BMP280;45234;48.148;17.128;2024-01-27T13:46:04;101381.06;;;7.77
24740;BMP280;45234;48.148;17.128;2024-01-27T13:48:31;101409.69;;;7.93
24740;BMP280;45234;48.148;17.128;2024-01-27T13:50:59;101399.50;;;7.91
24740;BMP280;45234;48.148;17.128;2024-01-27T13:53:26;101399.19;;;8.04
24740;BMP280;45234;48.148;17.128;2024-01-27T13:56:08;101407.47;;;8.17
24740;BMP280;45234;48.148;17.128;2024-01-27T13:58:35;101396.06;;;8.20
24740;BMP280;45234;48.148;17.128;2024-01-27T14:01:02;101402.03;;;8.20